Sublette, KS (67877)

5:17 PM CDT on August 30, 2014 (GMT -0500)
Lobmeyer Seed Farms | Change Station
CLOSE
Current Station
Personal Weather Station
Location: Garden City, KS
Elevation: 2890 ft
Nearby Weather Stations

Elev 2890 ft 37.74 °N, 100.85 °W | Updated 1 minute ago

Clear
Clear
92.0 °F
Feels Like 91 °F
N
13.0
Wind Variable Wind from South
Gusts 19.0 mph

Today
High -- | Low -- °F
--% Chance of Precip.
Yesterday
High -- | Low -- °F
Precip. -- in
7:12 AM 8:15 PM
Waxing Crescent, 25% visible
Pressure 29.80 in
Visibility 10.0 miles
Clouds Clear
Heat Index 91 °F
Dew Point 57 °F
Humidity 31%
Rainfall 0.00 in
Snow Depth Not available.
UV 5 out of 12
Pollen 10.90 out of 12
Air Quality Not available.
Flu Activity Not available.
METAR KGCK 302154Z 15016G23KT 10SM CLR 32/13 A2989 RMK AO2 SLP089 T03220128

More Conditions Fewer Conditions

Pressure 29.80 in
Visibility 10.0 miles
Clouds Clear
Heat Index 91 °F
Dew Point 57 °F
Humidity 31%
Rainfall 0.00 in
Snow Depth Not available.
UV 5 out of 12
Pollen 10.90 out of 12
Air Quality Not available.
Flu Activity Not available.
METAR KGCK 302154Z 15016G23KT 10SM CLR 32/13 A2989 RMK AO2 SLP089 T03220128

More Conditions Fewer Conditions

10-Day Weather Forecast

Almanac

Astronomy

Aug. 30, 2014 Rise Set
Actual Time 7:12 AM CDT 8:15 PM CDT
Civil Twilight 6:45 AM CDT 8:41 PM CDT
Nautical Twilight 6:13 AM CDT 9:13 PM CDT
Astronomical Twilight 5:40 AM CDT 9:46 PM CDT
Moon 11:54 AM CDT 10:57 PM CDT
Length of Visible Light 13h 56m
Length of Day
13h 03m
Tomorrow will be 2m 17s shorter.
Waxing Crescent, 25% of the Moon is Illuminated
Today
Waxing Crescent
Sep 2
First Quarter
Sep 8
Full
Sep 15
Last Quarter
Sep 24
New

Today's Extremes

State Highs State Lows

Community

WunderPhotos

Upload Photos

1,748,657 photos uploaded!

WunderBlogs® & News

Nearby

Snow Depth

Station Depth Elevation
No new snow has been reported.

Earthquake Activity

City Distance Mag. Time & Date
No recent earthquake activity has been reported nearby.
Minimum magnitude displayed is 2.5.

Coastal Water Temperatures

Place Temperature
No Stations Reporting

Nearby Weather Stations